This is the latest recevied weather packets stored in our database for station/object K42C. If no packets are shown the sender has not sent any weather packets the latest 10 day(s).
| Time | Temp. | Humidity | Pressure | Rain* | Wind** | Luminosity | Snow |
|---|---|---|---|---|---|---|---|
| 1777740041 | 8.33° C | 57% | 981 hPa | 0 mm | 0.45 m/s, 290° | - | - |
| 1777739640 | 8.33° C | 59% | 981.2 hPa | 0 mm | 2.24 m/s, 329° | - | - |
| 1777739243 | 7.78° C | 62% | 981.2 hPa | 0 mm | 0.89 m/s, 273° | - | - |
| 1777738842 | 7.78° C | 61% | 981.3 hPa | 0 mm | 0.89 m/s, 353° | - | - |
| 1777738445 | 7.78° C | 62% | 981.4 hPa | 0 mm | 1.79 m/s, 245° | - | - |
| 1777738044 | 7.22° C | 66% | 981.4 hPa | 0 mm | 0 m/s | - | - |
| 1777737246 | 7.22° C | 66% | 981.6 hPa | 0 mm | 0.89 m/s, 0° | - | - |
| 1777736849 | 6.67° C | 67% | 981.7 hPa | 0 mm | 2.24 m/s, 354° | - | - |
| 1777736449 | 6.67° C | 69% | 981.7 hPa | 0 mm | 2.68 m/s, 340° | - | - |
| 1777736051 | 6.67° C | 69% | 981.7 hPa | 0 mm | 0.45 m/s, 14° | - | - |
| 1777735650 | 6.67° C | 68% | 982 hPa | 0 mm | 1.34 m/s, 305° | - | - |
| 1777735253 | 6.67° C | 72% | 982 hPa | 0 mm | 2.24 m/s, 224° | - | - |
| 1777734853 | 6.11° C | 73% | 982 hPa | 0 mm | 1.34 m/s, 305° | - | - |
| 1777734455 | 6.11° C | 73% | 982 hPa | 0 mm | 1.79 m/s, 239° | - | - |
| 1777734055 | 6.11° C | 77% | 982.1 hPa | 0 mm | 2.24 m/s, 295° | - | - |
| 1777733657 | 6.11° C | 75% | 982 hPa | 0 mm | 2.24 m/s, 321° | - | - |
| 1777733257 | 5.56° C | 77% | 982.1 hPa | 0 mm | 1.34 m/s, 314° | - | - |
| 1777732061 | 5.56° C | 80% | 981.9 hPa | 0 mm | 2.24 m/s, 214° | - | - |
| 1777731661 | 5.56° C | 80% | 982 hPa | 0 mm | 1.34 m/s, 285° | - | - |
| 1777731263 | 5° C | 82% | 982 hPa | 0 mm | 2.24 m/s, 283° | - | - |
| 1777730863 | 5° C | 82% | 982.1 hPa | 0 mm | 2.24 m/s, 273° | - | - |
| 1777730465 | 5° C | 84% | 982.2 hPa | 0 mm | 0.89 m/s, 134° | - | - |
| 1777730065 | 5° C | 84% | 982.2 hPa | 0 mm | 2.24 m/s, 326° | - | - |
| 1777729668 | 4.44° C | 85% | 982.2 hPa | 0 mm | 0.89 m/s, 316° | - | - |
| 1777729267 | 5° C | 87% | 982.2 hPa | 0 mm | 0.89 m/s, 263° | - | - |
* Rain latest hour (hover to see other rain measurements)
** Current wind speed in m/s (hover to see current wind gust speed)